createdAt,value
2018-07-15T00:03:22.996Z,99.90
2018-07-15T00:13:13.566Z,99.90
2018-07-15T00:18:08.437Z,99.90
2018-07-15T00:23:03.139Z,99.90
2018-07-15T00:27:57.756Z,99.90
2018-07-15T00:37:46.588Z,99.90
2018-07-15T00:42:41.188Z,99.90
2018-07-15T00:47:35.799Z,99.90
2018-07-15T00:52:30.436Z,99.90
2018-07-15T00:57:25.173Z,99.90
2018-07-15T01:02:19.921Z,99.90
2018-07-15T01:07:14.636Z,99.90
2018-07-15T01:17:03.797Z,99.90
2018-07-15T01:21:58.512Z,99.90
2018-07-15T01:26:53.163Z,99.90
2018-07-15T01:31:47.825Z,99.90
2018-07-15T01:36:42.501Z,99.90
2018-07-15T01:41:37.177Z,99.90
2018-07-15T01:46:31.850Z,99.90
2018-07-15T01:51:26.405Z,99.90
2018-07-15T01:56:20.980Z,99.90
2018-07-15T02:01:15.623Z,99.90
2018-07-15T02:11:04.463Z,99.90
2018-07-15T02:15:59.088Z,99.90
2018-07-15T02:20:53.784Z,99.90
2018-07-15T02:25:48.409Z,99.90
2018-07-15T02:30:43.048Z,99.90
2018-07-15T02:35:37.640Z,99.90
2018-07-15T02:40:32.486Z,99.90
2018-07-15T02:45:27.311Z,99.90
2018-07-15T02:50:21.900Z,99.90
2018-07-15T02:55:16.580Z,99.90
2018-07-15T03:00:11.167Z,99.90
2018-07-15T03:05:05.820Z,99.90
2018-07-15T03:14:55.108Z,99.90
2018-07-15T03:19:49.767Z,99.90
2018-07-15T03:24:44.399Z,99.90
2018-07-15T03:29:39.072Z,99.90
2018-07-15T03:34:33.640Z,99.90
2018-07-15T03:39:28.244Z,99.90
2018-07-15T03:44:22.903Z,99.90
2018-07-15T03:54:11.890Z,99.90
2018-07-15T03:59:06.494Z,99.90
2018-07-15T04:04:01.687Z,99.90
2018-07-15T04:08:56.473Z,99.90
2018-07-15T04:13:51.430Z,99.90
2018-07-15T04:18:46.100Z,99.90
2018-07-15T04:23:40.748Z,99.90
2018-07-15T04:28:35.456Z,99.90
2018-07-15T04:33:30.089Z,99.90
2018-07-15T04:38:24.765Z,99.90
2018-07-15T04:43:19.582Z,99.90
2018-07-15T04:48:14.241Z,99.90
2018-07-15T04:53:08.939Z,99.90
2018-07-15T04:58:04.530Z,99.90
2018-07-15T05:02:59.280Z,99.90
2018-07-15T05:07:53.967Z,99.90
2018-07-15T05:12:48.707Z,99.90
2018-07-15T05:17:43.369Z,99.90
2018-07-15T05:22:37.969Z,99.90
2018-07-15T05:27:32.579Z,99.90
2018-07-15T05:32:27.156Z,99.90
2018-07-15T05:37:21.731Z,99.90
2018-07-15T05:42:16.357Z,99.90
2018-07-15T05:47:10.976Z,99.90
2018-07-15T05:52:06.850Z,99.90
2018-07-15T05:57:01.471Z,99.90
2018-07-15T06:01:56.135Z,99.90
2018-07-15T06:06:50.819Z,99.90
2018-07-15T06:11:46.599Z,99.90
2018-07-15T06:16:41.183Z,99.90
2018-07-15T06:21:35.838Z,99.90
2018-07-15T06:26:30.513Z,99.90
2018-07-15T06:31:25.190Z,99.90
2018-07-15T06:36:19.832Z,99.90
2018-07-15T06:41:14.568Z,99.90
2018-07-15T06:46:09.427Z,99.90
2018-07-15T06:55:58.420Z,99.90
2018-07-15T07:00:53.010Z,99.90
2018-07-15T07:05:47.713Z,99.90
2018-07-15T07:10:42.444Z,99.90
2018-07-15T07:20:26.939Z,99.90
2018-07-15T07:25:21.681Z,99.90
2018-07-15T07:30:16.362Z,99.90
2018-07-15T07:35:10.948Z,99.90
2018-07-15T07:40:06.780Z,99.90
2018-07-15T07:45:01.399Z,99.90
2018-07-15T07:49:56.009Z,99.90
2018-07-15T07:54:50.656Z,99.90
2018-07-15T08:04:40.294Z,99.90
2018-07-15T08:09:34.933Z,99.90
2018-07-15T08:14:29.679Z,99.90
2018-07-15T08:19:24.447Z,99.90
2018-07-15T08:24:19.289Z,99.90
2018-07-15T08:29:14.903Z,99.90
2018-07-15T08:34:09.626Z,99.90
2018-07-15T08:39:05.453Z,99.90
2018-07-15T08:44:00.111Z,99.90
2018-07-15T08:48:54.780Z,99.90
2018-07-15T08:53:49.519Z,99.90
2018-07-15T08:58:44.722Z,99.90
2018-07-15T09:03:39.386Z,99.90
2018-07-15T09:08:34.442Z,99.90
2018-07-15T09:13:29.083Z,99.90
2018-07-15T09:18:23.716Z,99.90
2018-07-15T09:23:18.311Z,99.90
2018-07-15T09:28:13.177Z,99.90
2018-07-15T09:33:07.864Z,99.90
2018-07-15T09:38:02.943Z,99.90
2018-07-15T09:42:57.524Z,99.90
2018-07-15T09:47:52.293Z,99.90
2018-07-15T09:52:47.033Z,99.90
2018-07-15T09:57:41.651Z,99.90
2018-07-15T10:02:36.284Z,99.90
2018-07-15T10:07:31.063Z,99.90
2018-07-15T10:12:25.797Z,99.90
2018-07-15T10:17:20.542Z,99.90
2018-07-15T10:22:15.170Z,99.90
2018-07-15T10:27:09.799Z,99.90
2018-07-15T10:32:04.616Z,99.90
2018-07-15T10:36:59.283Z,99.90
2018-07-15T10:41:53.940Z,99.40
2018-07-15T10:46:48.704Z,99.80
2018-07-15T10:51:43.397Z,99.70
2018-07-15T10:56:38.060Z,95.60
2018-07-15T11:01:32.704Z,99.20
2018-07-15T11:11:21.701Z,98.20
2018-07-15T11:16:16.478Z,96.50
2018-07-15T11:21:11.213Z,96.50
2018-07-15T11:26:05.969Z,96.80
2018-07-15T11:31:00.699Z,96.20
2018-07-15T11:35:55.229Z,97.70
2018-07-15T11:40:49.911Z,96.20
2018-07-15T11:45:44.525Z,91.60
2018-07-15T11:50:39.156Z,94.20
2018-07-15T11:55:33.718Z,94.30
2018-07-15T12:00:28.351Z,93.10
2018-07-15T12:05:22.940Z,93.60
2018-07-15T12:10:17.541Z,89.90
2018-07-15T12:15:12.130Z,91.20
2018-07-15T12:20:06.796Z,90.20
2018-07-15T12:25:01.468Z,89.40
2018-07-15T12:29:56.112Z,91.10
2018-07-15T12:34:50.762Z,91.50
2018-07-15T12:39:45.355Z,91.60
2018-07-15T12:44:39.978Z,87.30
2018-07-15T12:49:34.647Z,90.20
2018-07-15T12:54:29.379Z,87.80
2018-07-15T12:59:24.055Z,86.60
2018-07-15T13:04:18.751Z,86.10
2018-07-15T13:09:13.383Z,84.80
2018-07-15T13:14:08.029Z,84.80
2018-07-15T13:19:02.738Z,78.40
2018-07-15T13:23:57.499Z,80.80
2018-07-15T13:28:52.153Z,82.60
2018-07-15T13:33:47.045Z,85.00
2018-07-15T13:38:41.651Z,79.00
2018-07-15T13:43:36.430Z,80.10
2018-07-15T13:48:31.292Z,81.30
2018-07-15T13:53:25.932Z,80.10
2018-07-15T13:58:20.636Z,81.40
2018-07-15T14:03:15.348Z,81.10
2018-07-15T14:08:10.093Z,82.20
2018-07-15T14:13:04.877Z,78.30
2018-07-15T14:17:59.479Z,77.90
2018-07-15T14:22:54.211Z,74.50
2018-07-15T14:27:48.850Z,69.70
2018-07-15T14:32:43.401Z,69.60
2018-07-15T14:37:38.205Z,74.10
2018-07-15T14:42:32.811Z,67.60
2018-07-15T14:47:27.490Z,69.90
2018-07-15T14:52:22.188Z,71.10
2018-07-15T14:57:16.860Z,70.50
2018-07-15T15:02:11.577Z,72.80
2018-07-15T15:07:06.420Z,72.30
2018-07-15T15:12:01.124Z,73.10
2018-07-15T15:16:55.897Z,71.10
2018-07-15T15:21:53.423Z,73.80
2018-07-15T15:26:48.197Z,68.40
2018-07-15T15:31:43.148Z,69.20
2018-07-15T15:36:37.895Z,65.30
2018-07-15T15:41:32.608Z,65.20
2018-07-15T15:46:27.219Z,67.50
2018-07-15T15:51:21.904Z,66.00
2018-07-15T15:56:16.468Z,70.00
2018-07-15T16:01:11.120Z,66.70
2018-07-15T16:06:05.949Z,69.00
2018-07-15T16:11:00.527Z,63.80
2018-07-15T16:15:55.256Z,62.70
2018-07-15T16:20:49.831Z,65.20
2018-07-15T16:25:44.551Z,63.50
2018-07-15T16:30:39.299Z,61.70
2018-07-15T16:35:33.972Z,64.20
2018-07-15T16:40:28.729Z,69.10
2018-07-15T16:45:23.315Z,75.00
2018-07-15T16:50:18.007Z,80.00
2018-07-15T17:00:07.229Z,81.50
2018-07-15T17:05:01.896Z,82.60
2018-07-15T17:09:57.249Z,86.00
2018-07-15T17:14:52.013Z,82.70
2018-07-15T17:19:46.728Z,84.10
2018-07-15T17:24:41.419Z,87.60
2018-07-15T17:34:30.481Z,90.20
2018-07-15T17:44:25.947Z,90.10
2018-07-15T17:49:20.918Z,91.30
2018-07-15T17:54:15.693Z,91.80
2018-07-15T17:59:10.970Z,90.50
2018-07-15T18:04:05.713Z,91.00
2018-07-15T18:09:00.527Z,90.70
2018-07-15T18:13:55.216Z,92.00
2018-07-15T18:18:54.078Z,91.40
2018-07-15T18:23:48.892Z,90.10
2018-07-15T18:28:44.255Z,91.50
2018-07-15T18:33:39.251Z,92.20
2018-07-15T18:38:34.326Z,93.70
2018-07-15T18:43:29.368Z,93.10
2018-07-15T18:48:24.365Z,94.70
2018-07-15T18:53:19.132Z,95.40
2018-07-15T18:58:13.848Z,94.00
2018-07-15T19:03:08.600Z,94.80
2018-07-15T19:08:03.399Z,94.50
2018-07-15T19:12:58.173Z,95.60
2018-07-15T19:17:52.902Z,96.90
2018-07-15T19:22:47.690Z,97.90
2018-07-15T19:27:42.421Z,97.80
2018-07-15T19:32:37.116Z,98.50
2018-07-15T19:37:31.949Z,99.40
2018-07-15T19:42:26.772Z,99.90
2018-07-15T19:47:21.763Z,99.90
2018-07-15T19:52:16.489Z,99.90
2018-07-15T19:57:13.159Z,99.90
2018-07-15T20:02:08.127Z,99.90
2018-07-15T20:07:02.855Z,99.90
2018-07-15T20:11:57.615Z,99.90
2018-07-15T20:16:52.316Z,99.90
2018-07-15T20:21:47.108Z,99.90
2018-07-15T20:26:41.828Z,99.90
2018-07-15T20:31:36.567Z,99.70
2018-07-15T20:36:31.373Z,99.90
2018-07-15T20:41:26.346Z,99.90
2018-07-15T20:46:21.289Z,99.90
2018-07-15T20:51:16.197Z,99.90
2018-07-15T20:56:11.087Z,99.90
2018-07-15T21:06:00.447Z,99.90
2018-07-15T21:10:55.213Z,99.90
2018-07-15T21:15:50.043Z,99.90
2018-07-15T21:20:45.032Z,99.90
2018-07-15T21:25:40.119Z,99.90
2018-07-15T21:30:35.056Z,99.90
2018-07-15T21:35:30.257Z,99.90
2018-07-15T21:40:25.367Z,99.90
2018-07-15T21:45:21.067Z,99.90
2018-07-15T21:50:16.577Z,99.90
2018-07-15T21:55:13.988Z,99.90
2018-07-15T22:00:09.514Z,99.90
2018-07-15T22:05:04.854Z,99.90
2018-07-15T22:10:12.153Z,99.90
2018-07-15T22:15:07.021Z,99.90
2018-07-15T22:20:01.953Z,99.90
2018-07-15T22:24:56.828Z,99.90
2018-07-15T22:29:51.686Z,99.90
2018-07-15T22:34:46.459Z,99.90
2018-07-15T22:39:41.223Z,99.90
2018-07-15T22:44:36.107Z,99.90
2018-07-15T22:49:30.920Z,99.90
2018-07-15T22:54:25.924Z,99.90
2018-07-15T22:59:20.802Z,99.90
2018-07-15T23:04:16.288Z,99.90
2018-07-15T23:09:12.145Z,99.90
2018-07-15T23:14:07.608Z,99.90
2018-07-15T23:19:02.448Z,99.90
2018-07-15T23:23:57.236Z,99.90
2018-07-15T23:38:41.360Z,99.90
2018-07-15T23:43:36.829Z,99.90
2018-07-15T23:48:31.587Z,99.90
2018-07-15T23:53:26.395Z,99.90
2018-07-15T23:58:21.144Z,99.90
